createdAt,value
2019-02-10T00:01:45.958Z,5.60
2019-02-10T00:04:12.922Z,5.60
2019-02-10T00:06:42.364Z,5.60
2019-02-10T00:09:09.269Z,5.60
2019-02-10T00:11:38.318Z,5.60
2019-02-10T00:14:05.325Z,5.60
2019-02-10T00:16:32.140Z,5.60
2019-02-10T00:18:59.014Z,5.60
2019-02-10T00:21:25.942Z,5.60
2019-02-10T00:23:52.961Z,5.60
2019-02-10T00:26:19.808Z,5.60
2019-02-10T00:28:46.698Z,5.60
2019-02-10T00:31:13.730Z,5.60
2019-02-10T00:33:40.584Z,5.60
2019-02-10T00:36:07.587Z,5.60
2019-02-10T00:38:34.590Z,5.60
2019-02-10T00:41:01.622Z,5.50
2019-02-10T00:43:28.441Z,5.60
2019-02-10T00:45:55.463Z,5.60
2019-02-10T00:48:22.468Z,5.50
2019-02-10T00:50:49.585Z,5.50
2019-02-10T00:53:16.394Z,5.50
2019-02-10T00:55:43.261Z,5.50
2019-02-10T00:58:10.226Z,5.50
2019-02-10T01:00:37.076Z,5.50
2019-02-10T01:03:04.100Z,5.50
2019-02-10T01:05:31.348Z,5.50
2019-02-10T01:07:58.373Z,5.50
2019-02-10T01:10:26.177Z,5.40
2019-02-10T01:12:53.247Z,5.50
2019-02-10T01:15:21.991Z,5.40
2019-02-10T01:17:48.854Z,5.40
2019-02-10T01:20:15.780Z,5.40
2019-02-10T01:22:42.679Z,5.40
2019-02-10T01:25:09.729Z,5.40
2019-02-10T01:27:36.660Z,5.40
2019-02-10T01:30:04.592Z,5.30
2019-02-10T01:32:31.543Z,5.40
2019-02-10T01:34:58.341Z,5.30
2019-02-10T01:37:27.661Z,5.30
2019-02-10T01:39:54.626Z,5.30
2019-02-10T01:42:22.550Z,5.30
2019-02-10T01:44:49.500Z,5.30
2019-02-10T01:47:16.850Z,5.30
2019-02-10T01:49:43.762Z,5.30
2019-02-10T01:52:10.577Z,5.30
2019-02-10T01:54:37.417Z,5.30
2019-02-10T01:57:04.431Z,5.30
2019-02-10T01:59:31.350Z,5.20
2019-02-10T02:01:58.408Z,5.20
2019-02-10T02:04:25.202Z,5.30
2019-02-10T02:06:57.670Z,5.30
2019-02-10T02:09:20.866Z,5.20
2019-02-10T02:11:47.674Z,5.30
2019-02-10T02:14:14.933Z,5.20
2019-02-10T02:16:41.783Z,5.30
2019-02-10T02:19:08.822Z,5.20
2019-02-10T02:21:35.626Z,5.20
2019-02-10T02:24:02.691Z,5.30
2019-02-10T02:26:29.546Z,5.30
2019-02-10T02:28:56.366Z,5.30
2019-02-10T02:31:23.223Z,5.20
2019-02-10T02:33:50.042Z,5.20
2019-02-10T02:36:16.951Z,5.20
2019-02-10T02:38:43.818Z,5.20
2019-02-10T02:41:11.833Z,5.20
2019-02-10T02:43:38.653Z,5.20
2019-02-10T02:46:05.514Z,5.20
2019-02-10T02:48:32.414Z,5.20
2019-02-10T02:51:00.860Z,5.20
2019-02-10T02:53:27.974Z,5.10
2019-02-10T02:55:54.887Z,5.10
2019-02-10T02:58:21.699Z,5.10
2019-02-10T03:00:48.546Z,5.10
2019-02-10T03:03:15.350Z,5.10
2019-02-10T03:05:42.158Z,5.10
2019-02-10T03:08:09.285Z,5.00
2019-02-10T03:10:36.267Z,4.90
2019-02-10T03:13:03.189Z,4.80
2019-02-10T03:15:30.041Z,4.70
2019-02-10T03:17:56.942Z,4.60
2019-02-10T03:20:23.773Z,4.50
2019-02-10T03:22:50.724Z,4.40
2019-02-10T03:25:17.528Z,4.40
2019-02-10T03:27:44.352Z,4.30
2019-02-10T03:30:11.400Z,4.30
2019-02-10T03:32:38.445Z,4.30
2019-02-10T03:35:05.562Z,4.20
2019-02-10T03:37:32.404Z,4.10
2019-02-10T03:40:01.535Z,4.10
2019-02-10T03:42:28.542Z,4.10
2019-02-10T03:44:55.474Z,4.10
2019-02-10T03:47:22.414Z,4.10
2019-02-10T03:49:49.335Z,4.00
2019-02-10T03:52:16.270Z,4.10
2019-02-10T03:54:43.294Z,4.00
2019-02-10T03:57:10.322Z,4.00
2019-02-10T03:59:38.949Z,3.90
2019-02-10T04:02:05.963Z,4.00
2019-02-10T04:04:32.765Z,3.80
2019-02-10T04:06:59.621Z,3.90
2019-02-10T04:09:26.429Z,3.90
2019-02-10T04:11:55.458Z,3.90
2019-02-10T04:14:22.426Z,3.90
2019-02-10T04:16:49.216Z,3.90
2019-02-10T04:19:16.134Z,3.90
2019-02-10T04:21:43.047Z,3.90
2019-02-10T04:24:09.881Z,3.80
2019-02-10T04:26:36.802Z,3.90
2019-02-10T04:29:03.951Z,3.80
2019-02-10T04:31:30.765Z,3.90
2019-02-10T04:33:57.586Z,3.80
2019-02-10T04:36:24.422Z,3.80
2019-02-10T04:38:51.249Z,3.80
2019-02-10T04:41:18.067Z,3.90
2019-02-10T04:43:44.934Z,3.70
2019-02-10T04:46:11.739Z,3.80
2019-02-10T04:48:38.533Z,3.80
2019-02-10T04:51:05.365Z,3.80
2019-02-10T04:53:32.287Z,3.70
2019-02-10T04:56:18.059Z,3.70
2019-02-10T04:58:45.088Z,3.70
2019-02-10T05:01:12.172Z,3.60
2019-02-10T05:03:39.148Z,3.60
2019-02-10T05:06:05.951Z,3.60
2019-02-10T05:08:32.758Z,3.50
2019-02-10T05:10:59.606Z,3.50
2019-02-10T05:13:26.486Z,3.50
2019-02-10T05:15:53.811Z,3.60
2019-02-10T05:18:20.775Z,3.60
2019-02-10T05:20:47.829Z,3.60
2019-02-10T05:23:14.726Z,3.60
2019-02-10T05:25:41.570Z,3.70
2019-02-10T05:28:08.485Z,3.80
2019-02-10T05:30:35.287Z,3.90
2019-02-10T05:33:02.158Z,4.00
2019-02-10T05:35:29.057Z,4.00
2019-02-10T05:38:03.951Z,4.10
2019-02-10T05:40:24.636Z,4.10
2019-02-10T05:42:51.466Z,4.20
2019-02-10T05:45:18.486Z,4.20
2019-02-10T05:47:45.409Z,4.30
2019-02-10T05:50:12.314Z,4.30
2019-02-10T05:52:39.221Z,4.40
2019-02-10T05:55:06.307Z,4.40
2019-02-10T05:57:33.183Z,4.50
2019-02-10T06:00:00.003Z,4.50
2019-02-10T06:02:31.049Z,4.50
2019-02-10T06:05:01.079Z,4.50
2019-02-10T06:07:27.897Z,4.60
2019-02-10T06:09:54.770Z,4.60
2019-02-10T06:12:21.834Z,4.70
2019-02-10T06:14:48.746Z,4.70
2019-02-10T06:17:15.838Z,4.70
2019-02-10T06:19:42.731Z,4.70
2019-02-10T06:22:09.560Z,4.70
2019-02-10T06:24:36.407Z,4.70
2019-02-10T06:27:03.319Z,4.70
2019-02-10T06:29:30.235Z,4.80
2019-02-10T06:31:57.233Z,4.80
2019-02-10T06:34:24.042Z,4.80
2019-02-10T06:36:50.953Z,4.80
2019-02-10T06:39:17.915Z,4.80
2019-02-10T06:41:44.862Z,4.90
2019-02-10T06:44:11.681Z,4.90
2019-02-10T06:46:38.524Z,4.90
2019-02-10T06:49:05.367Z,4.90
2019-02-10T06:51:32.247Z,4.90
2019-02-10T06:53:59.174Z,4.80
2019-02-10T06:56:25.968Z,4.80
2019-02-10T06:58:52.889Z,4.70
2019-02-10T07:01:42.165Z,4.60
2019-02-10T07:04:22.162Z,4.70
2019-02-10T07:06:49.122Z,4.70
2019-02-10T07:09:15.911Z,4.80
2019-02-10T07:11:42.717Z,4.80
2019-02-10T07:14:19.158Z,4.90
2019-02-10T07:16:53.222Z,4.80
2019-02-10T07:20:09.238Z,4.90
2019-02-10T07:23:24.394Z,4.90
2019-02-10T07:25:59.530Z,4.90
2019-02-10T07:29:00.418Z,4.90
2019-02-10T07:31:33.473Z,4.90
2019-02-10T07:34:32.095Z,4.80
2019-02-10T07:37:30.911Z,4.80
2019-02-10T07:40:35.435Z,4.80
2019-02-10T07:43:18.014Z,4.80
2019-02-10T07:46:15.006Z,4.90
2019-02-10T07:49:11.430Z,4.90
2019-02-10T07:52:05.484Z,5.00
2019-02-10T07:55:22.566Z,4.90
2019-02-10T07:58:16.090Z,4.90
2019-02-10T08:00:56.360Z,4.80
2019-02-10T08:04:05.423Z,4.80
2019-02-10T08:07:03.632Z,4.90
2019-02-10T08:10:14.190Z,4.90
2019-02-10T08:13:11.719Z,4.90
2019-02-10T08:16:08.736Z,4.80
2019-02-10T08:19:01.798Z,4.90
2019-02-10T08:21:57.398Z,4.90
2019-02-10T08:25:07.900Z,4.90
2019-02-10T08:28:19.678Z,4.90
2019-02-10T08:31:30.790Z,4.90
2019-02-10T08:34:29.152Z,5.00
2019-02-10T08:37:33.171Z,5.10
2019-02-10T08:40:37.725Z,5.20
2019-02-10T08:43:32.801Z,5.30
2019-02-10T08:46:57.302Z,5.30
2019-02-10T08:50:02.717Z,5.30
2019-02-10T08:52:55.136Z,5.40
2019-02-10T08:55:22.079Z,5.40
2019-02-10T08:57:48.903Z,5.40
2019-02-10T09:00:15.802Z,5.50
2019-02-10T09:02:44.672Z,5.50
2019-02-10T09:05:11.586Z,5.50
2019-02-10T09:07:38.530Z,5.60
2019-02-10T09:10:07.111Z,5.50
2019-02-10T09:12:34.061Z,5.50
2019-02-10T09:15:00.877Z,5.50
2019-02-10T09:17:27.834Z,5.50
2019-02-10T09:19:54.679Z,5.50
2019-02-10T09:22:21.614Z,5.50
2019-02-10T09:24:48.457Z,5.50
2019-02-10T09:27:15.312Z,5.50
2019-02-10T09:29:42.230Z,5.60
2019-02-10T09:32:09.079Z,5.70
2019-02-10T09:34:36.150Z,5.70
2019-02-10T09:37:03.169Z,5.80
2019-02-10T09:39:30.019Z,5.80
2019-02-10T09:41:56.832Z,5.80
2019-02-10T09:44:23.716Z,5.80
2019-02-10T09:46:50.554Z,5.80
2019-02-10T09:49:17.468Z,5.90
2019-02-10T09:51:44.382Z,5.90
2019-02-10T09:54:11.358Z,5.90
2019-02-10T09:56:38.159Z,6.00
2019-02-10T09:59:04.948Z,5.90
2019-02-10T10:01:31.907Z,6.00
2019-02-10T10:03:58.913Z,5.90
2019-02-10T10:06:25.829Z,6.00
2019-02-10T10:08:52.690Z,5.90
2019-02-10T10:11:19.634Z,6.00
2019-02-10T10:13:46.465Z,6.00
2019-02-10T10:16:13.402Z,6.00
2019-02-10T10:18:40.222Z,6.00
2019-02-10T10:21:07.130Z,6.00
2019-02-10T10:23:38.362Z,6.00
2019-02-10T10:26:05.290Z,6.00
2019-02-10T10:28:32.196Z,5.90
2019-02-10T10:30:59.139Z,5.90
2019-02-10T10:33:27.704Z,5.80
2019-02-10T10:35:54.588Z,5.70
2019-02-10T10:38:21.552Z,5.70
2019-02-10T10:40:48.402Z,5.70
2019-02-10T10:43:15.348Z,5.70
2019-02-10T10:45:42.174Z,5.80
2019-02-10T10:48:09.097Z,5.80
2019-02-10T10:50:35.922Z,5.80
2019-02-10T10:53:02.958Z,5.80
2019-02-10T10:55:29.761Z,5.80
2019-02-10T10:57:56.560Z,5.80
2019-02-10T11:00:23.610Z,5.80
2019-02-10T11:02:50.410Z,5.80
2019-02-10T11:05:17.228Z,5.80
2019-02-10T11:07:44.078Z,5.80
2019-02-10T11:10:11.098Z,5.80
2019-02-10T11:12:38.107Z,5.80
2019-02-10T11:15:06.522Z,5.80
2019-02-10T11:17:33.333Z,5.80
2019-02-10T11:20:00.253Z,5.80
2019-02-10T11:22:27.200Z,5.90
2019-02-10T11:24:53.994Z,5.90
2019-02-10T11:27:20.905Z,5.90
2019-02-10T11:29:47.801Z,5.90
2019-02-10T11:32:14.630Z,5.90
2019-02-10T11:34:46.285Z,5.90
2019-02-10T11:37:10.302Z,5.90
2019-02-10T11:39:43.683Z,5.80
2019-02-10T11:42:06.060Z,5.80
2019-02-10T11:44:33.022Z,5.80
2019-02-10T11:47:00.038Z,5.70
2019-02-10T11:49:26.939Z,5.80
2019-02-10T11:51:53.785Z,5.80
2019-02-10T11:54:20.692Z,5.70
2019-02-10T11:56:47.508Z,5.60
2019-02-10T11:59:14.459Z,5.60
2019-02-10T12:01:41.388Z,5.60
2019-02-10T12:04:09.277Z,5.60
2019-02-10T12:06:36.134Z,5.60
2019-02-10T12:09:04.597Z,5.60
2019-02-10T12:11:31.529Z,5.60
2019-02-10T12:13:58.586Z,5.60
2019-02-10T12:16:25.496Z,5.60
2019-02-10T12:18:52.393Z,5.60
2019-02-10T12:21:19.353Z,5.50
2019-02-10T12:23:46.385Z,5.50
2019-02-10T12:26:13.346Z,5.50
2019-02-10T12:28:40.216Z,5.50
2019-02-10T12:31:07.028Z,5.50
2019-02-10T12:33:33.831Z,5.40
2019-02-10T12:36:00.726Z,5.40
2019-02-10T12:38:27.555Z,5.40
2019-02-10T12:40:54.366Z,5.40
2019-02-10T12:43:21.311Z,5.40
2019-02-10T12:45:48.163Z,5.40
2019-02-10T12:48:15.128Z,5.40
2019-02-10T12:50:42.074Z,5.40
2019-02-10T12:53:09.086Z,5.40
2019-02-10T12:55:35.899Z,5.30
2019-02-10T12:58:05.411Z,5.40
2019-02-10T13:00:32.526Z,5.40
2019-02-10T13:02:59.450Z,5.40
2019-02-10T13:05:26.391Z,5.40
2019-02-10T13:07:53.234Z,5.40
2019-02-10T13:10:20.059Z,5.40
2019-02-10T13:12:47.032Z,5.40
2019-02-10T13:15:13.945Z,5.40
2019-02-10T13:17:40.870Z,5.30
2019-02-10T13:20:08.186Z,5.40
2019-02-10T13:22:35.106Z,5.40
2019-02-10T13:25:02.033Z,5.40
2019-02-10T13:27:28.881Z,5.40
2019-02-10T13:29:55.858Z,5.40
2019-02-10T13:32:22.664Z,5.40
2019-02-10T13:34:49.571Z,5.40
2019-02-10T13:37:16.984Z,5.40
2019-02-10T13:39:43.903Z,5.40
2019-02-10T13:42:10.861Z,5.30
2019-02-10T13:44:37.793Z,5.30
2019-02-10T13:47:04.805Z,5.30
2019-02-10T13:49:31.766Z,5.30
2019-02-10T13:51:58.581Z,5.30
2019-02-10T13:54:25.519Z,5.30
2019-02-10T13:56:53.770Z,5.30
2019-02-10T13:59:20.608Z,5.30
2019-02-10T14:01:48.850Z,5.20
2019-02-10T14:04:15.824Z,5.20
2019-02-10T14:06:42.637Z,5.20
2019-02-10T14:09:09.453Z,5.20
2019-02-10T14:11:36.400Z,5.20
2019-02-10T14:14:03.414Z,5.20
2019-02-10T14:16:30.257Z,5.10
2019-02-10T14:18:57.108Z,5.10
2019-02-10T14:21:24.154Z,5.00
2019-02-10T14:23:50.979Z,5.00
2019-02-10T14:26:17.852Z,5.00
2019-02-10T14:28:44.805Z,4.90
2019-02-10T14:31:11.600Z,4.90
2019-02-10T14:33:39.084Z,4.90
2019-02-10T14:36:06.122Z,4.80
2019-02-10T14:38:36.273Z,4.80
2019-02-10T14:41:01.706Z,4.80
2019-02-10T14:43:28.510Z,4.70
2019-02-10T14:45:55.337Z,4.70
2019-02-10T14:48:22.178Z,4.70
2019-02-10T14:50:49.217Z,4.70
2019-02-10T14:53:16.475Z,4.70
2019-02-10T14:55:43.295Z,4.70
2019-02-10T14:58:10.223Z,4.60
2019-02-10T15:00:37.019Z,4.60
2019-02-10T15:03:03.978Z,4.60
2019-02-10T15:05:30.903Z,4.60
2019-02-10T15:07:57.722Z,4.60
2019-02-10T15:10:24.581Z,4.60
2019-02-10T15:12:51.398Z,4.60
2019-02-10T15:15:18.220Z,4.50
2019-02-10T15:17:45.086Z,4.40
2019-02-10T15:20:12.131Z,4.40
2019-02-10T15:22:40.409Z,4.40
2019-02-10T15:25:07.802Z,4.40
2019-02-10T15:27:34.683Z,4.40
2019-02-10T15:30:01.727Z,4.40
2019-02-10T15:32:28.600Z,4.40
2019-02-10T15:34:55.430Z,4.30
2019-02-10T15:37:22.256Z,4.30
2019-02-10T15:39:49.126Z,4.30
2019-02-10T15:42:15.949Z,4.30
2019-02-10T15:44:42.874Z,4.30
2019-02-10T15:47:09.949Z,4.20
2019-02-10T15:49:36.771Z,4.20
2019-02-10T15:52:03.697Z,4.20
2019-02-10T15:54:31.783Z,4.20
2019-02-10T15:56:58.627Z,4.20
2019-02-10T15:59:25.449Z,4.20
2019-02-10T16:01:52.410Z,4.20
2019-02-10T16:04:19.350Z,4.20
2019-02-10T16:06:46.217Z,4.20
2019-02-10T16:09:13.077Z,4.20
2019-02-10T16:11:39.931Z,4.20
2019-02-10T16:14:06.873Z,4.20
2019-02-10T16:16:33.838Z,4.20
2019-02-10T16:19:00.919Z,4.20
2019-02-10T16:21:27.777Z,4.20
2019-02-10T16:23:54.631Z,4.20
2019-02-10T16:26:21.482Z,4.20
2019-02-10T16:28:48.307Z,4.20
2019-02-10T16:31:15.156Z,4.20
2019-02-10T16:33:42.811Z,4.10
2019-02-10T16:36:09.662Z,4.10
2019-02-10T16:38:36.526Z,4.10
2019-02-10T16:41:06.331Z,4.10
2019-02-10T16:43:32.492Z,4.10
2019-02-10T16:45:59.334Z,4.10
2019-02-10T16:48:26.134Z,4.10
2019-02-10T16:50:53.152Z,4.10
2019-02-10T16:53:20.153Z,4.00
2019-02-10T16:55:47.117Z,4.00
2019-02-10T16:58:14.019Z,4.00
2019-02-10T17:00:41.084Z,4.00
2019-02-10T17:03:08.021Z,4.00
2019-02-10T17:05:34.849Z,4.00
2019-02-10T17:08:01.794Z,4.00
2019-02-10T17:10:28.707Z,4.00
2019-02-10T17:12:55.514Z,4.00
2019-02-10T17:15:22.466Z,4.00
2019-02-10T17:17:49.397Z,4.00
2019-02-10T17:20:17.492Z,4.00
2019-02-10T17:22:44.341Z,4.00
2019-02-10T17:25:12.761Z,4.00
2019-02-10T17:27:39.845Z,4.00
2019-02-10T17:30:07.470Z,4.00
2019-02-10T17:32:34.330Z,4.00
2019-02-10T17:35:01.334Z,4.00
2019-02-10T17:37:28.211Z,4.00
2019-02-10T17:39:55.026Z,4.00
2019-02-10T17:42:22.153Z,4.00
2019-02-10T17:44:49.011Z,4.00
2019-02-10T17:47:15.930Z,4.00
2019-02-10T17:49:42.765Z,4.00
2019-02-10T17:52:09.607Z,4.00
2019-02-10T17:54:36.416Z,4.00
2019-02-10T17:57:03.318Z,4.00
2019-02-10T17:59:30.309Z,4.00
2019-02-10T18:01:57.250Z,4.00
2019-02-10T18:04:24.046Z,4.00
2019-02-10T18:06:51.005Z,4.00
2019-02-10T18:09:18.101Z,4.00
2019-02-10T18:11:44.926Z,4.00
2019-02-10T18:14:45.389Z,4.00
2019-02-10T18:17:31.957Z,4.00
2019-02-10T18:20:06.219Z,4.00
2019-02-10T18:22:53.887Z,4.00
2019-02-10T18:25:39.344Z,4.00
2019-02-10T18:28:13.383Z,4.00
2019-02-10T18:31:02.471Z,4.00
2019-02-10T18:33:36.142Z,4.00
2019-02-10T18:36:21.630Z,4.00
2019-02-10T18:39:04.027Z,4.00
2019-02-10T18:41:49.392Z,4.00
2019-02-10T18:44:35.858Z,4.00
2019-02-10T18:47:28.294Z,4.00
2019-02-10T18:50:06.732Z,4.00
2019-02-10T18:52:57.471Z,4.00
2019-02-10T18:55:40.139Z,4.00
2019-02-10T18:58:25.240Z,4.00
2019-02-10T19:01:11.693Z,4.00
2019-02-10T19:03:58.324Z,4.00
2019-02-10T19:06:32.205Z,3.90
2019-02-10T19:09:15.286Z,3.90
2019-02-10T19:12:07.142Z,3.90
2019-02-10T19:14:44.635Z,3.90
2019-02-10T19:17:19.876Z,3.90
2019-02-10T19:20:02.731Z,3.90
2019-02-10T19:22:49.700Z,3.90
2019-02-10T19:25:31.149Z,3.90
2019-02-10T19:28:23.420Z,3.90
2019-02-10T19:31:00.121Z,3.80
2019-02-10T19:33:45.072Z,3.80
2019-02-10T19:36:23.105Z,3.80
2019-02-10T19:39:15.631Z,3.80
2019-02-10T19:42:04.706Z,3.80
2019-02-10T19:45:00.591Z,3.80
2019-02-10T19:47:34.907Z,3.80
2019-02-10T19:50:11.038Z,3.80
2019-02-10T19:53:04.435Z,3.70
2019-02-10T19:55:37.973Z,3.80
2019-02-10T19:58:30.390Z,3.70
2019-02-10T20:01:15.766Z,3.70
2019-02-10T20:04:06.202Z,3.70
2019-02-10T20:07:04.697Z,3.70
2019-02-10T20:09:48.306Z,3.70
2019-02-10T20:12:25.059Z,3.70
2019-02-10T20:15:11.651Z,3.70
2019-02-10T20:17:58.222Z,3.70
2019-02-10T20:20:49.609Z,3.70
2019-02-10T20:23:54.255Z,3.70
2019-02-10T20:26:32.094Z,3.70
2019-02-10T20:29:41.151Z,3.70
2019-02-10T20:32:24.436Z,3.60
2019-02-10T20:35:02.844Z,3.70
2019-02-10T20:37:49.437Z,3.60
2019-02-10T20:40:28.952Z,3.60
2019-02-10T20:43:10.610Z,3.60
2019-02-10T20:45:46.286Z,3.60
2019-02-10T20:48:25.137Z,3.60
2019-02-10T20:51:06.590Z,3.60
2019-02-10T20:54:00.850Z,3.60
2019-02-10T20:56:32.838Z,3.60
2019-02-10T20:59:22.014Z,3.60
2019-02-10T21:02:14.947Z,3.60
2019-02-10T21:05:05.974Z,3.60
2019-02-10T21:07:39.550Z,3.60
2019-02-10T21:10:23.142Z,3.60
2019-02-10T21:13:03.431Z,3.60
2019-02-10T21:15:53.058Z,3.60
2019-02-10T21:18:38.020Z,3.50
2019-02-10T21:21:24.592Z,3.50
2019-02-10T21:23:59.794Z,3.50
2019-02-10T21:26:46.316Z,3.60
2019-02-10T21:29:23.977Z,3.60
2019-02-10T21:32:19.414Z,3.50
2019-02-10T21:35:05.987Z,3.50
2019-02-10T21:37:41.289Z,3.60
2019-02-10T21:40:17.376Z,3.50
2019-02-10T21:43:04.590Z,3.50
2019-02-10T21:45:53.611Z,3.50
2019-02-10T21:48:42.758Z,3.50
2019-02-10T21:51:09.666Z,3.50
2019-02-10T21:53:36.507Z,3.50
2019-02-10T21:56:03.445Z,3.50
2019-02-10T21:58:30.269Z,3.50
2019-02-10T22:00:57.084Z,3.50
2019-02-10T22:03:24.058Z,3.50
2019-02-10T22:05:50.886Z,3.50
2019-02-10T22:08:17.700Z,3.50
2019-02-10T22:10:44.525Z,3.50
2019-02-10T22:13:11.328Z,3.50
2019-02-10T22:15:38.130Z,3.50
2019-02-10T22:18:05.078Z,3.50
2019-02-10T22:20:31.894Z,3.50
2019-02-10T22:22:58.697Z,3.50
2019-02-10T22:25:25.550Z,3.50
2019-02-10T22:27:52.353Z,3.50
2019-02-10T22:30:19.336Z,3.50
2019-02-10T22:32:46.441Z,3.50
2019-02-10T22:35:13.354Z,3.40
2019-02-10T22:37:40.154Z,3.50
2019-02-10T22:40:07.526Z,3.50
2019-02-10T22:42:34.338Z,3.40
2019-02-10T22:45:01.133Z,3.40
2019-02-10T22:47:27.983Z,3.40
2019-02-10T22:49:54.815Z,3.40
2019-02-10T22:52:21.626Z,3.40
2019-02-10T22:54:48.462Z,3.40
2019-02-10T22:57:15.274Z,3.40
2019-02-10T22:59:42.081Z,3.40
2019-02-10T23:02:09.258Z,3.40
2019-02-10T23:04:36.085Z,3.40
2019-02-10T23:07:03.397Z,3.40
2019-02-10T23:09:30.241Z,3.40
2019-02-10T23:11:57.171Z,3.40
2019-02-10T23:14:23.972Z,3.40
2019-02-10T23:16:50.818Z,3.40
2019-02-10T23:19:17.652Z,3.50
2019-02-10T23:21:44.470Z,3.40
2019-02-10T23:24:11.325Z,3.40
2019-02-10T23:26:38.130Z,3.40
2019-02-10T23:29:05.026Z,3.40
2019-02-10T23:31:31.926Z,3.40
2019-02-10T23:33:58.789Z,3.50
2019-02-10T23:36:25.693Z,3.50
2019-02-10T23:38:52.520Z,3.50
2019-02-10T23:41:19.331Z,3.50
2019-02-10T23:43:46.151Z,3.50
2019-02-10T23:46:12.993Z,3.50
2019-02-10T23:48:39.794Z,3.50
2019-02-10T23:51:06.701Z,3.50
2019-02-10T23:53:33.544Z,3.50
2019-02-10T23:56:00.342Z,3.50
2019-02-10T23:58:27.250Z,3.40
